sensor_id;sensor_type;location;lat;lon;timestamp;P1;durP1;ratioP1;P2;durP2;ratioP2
66927;SDS011;59882;45.624;11.698;2023-07-16T00:01:55;26.10;;;22.50;;
66927;SDS011;59882;45.624;11.698;2023-07-16T00:04:21;29.67;;;21.92;;
66927;SDS011;59882;45.624;11.698;2023-07-16T00:06:47;26.52;;;21.45;;
66927;SDS011;59882;45.624;11.698;2023-07-16T00:09:12;26.93;;;21.80;;
66927;SDS011;59882;45.624;11.698;2023-07-16T00:11:38;26.05;;;19.13;;
66927;SDS011;59882;45.624;11.698;2023-07-16T00:14:04;24.53;;;20.03;;
66927;SDS011;59882;45.624;11.698;2023-07-16T00:16:30;24.95;;;19.83;;
66927;SDS011;59882;45.624;11.698;2023-07-16T00:18:55;22.40;;;20.00;;
66927;SDS011;59882;45.624;11.698;2023-07-16T00:21:21;22.37;;;19.03;;
66927;SDS011;59882;45.624;11.698;2023-07-16T00:23:47;25.30;;;19.00;;
66927;SDS011;59882;45.624;11.698;2023-07-16T00:26:12;25.87;;;18.93;;
66927;SDS011;59882;45.624;11.698;2023-07-16T00:28:38;25.77;;;20.90;;
66927;SDS011;59882;45.624;11.698;2023-07-16T00:31:04;24.60;;;20.05;;
66927;SDS011;59882;45.624;11.698;2023-07-16T00:33:29;19.83;;;17.57;;
66927;SDS011;59882;45.624;11.698;2023-07-16T00:35:55;21.17;;;17.23;;
66927;SDS011;59882;45.624;11.698;2023-07-16T00:38:21;23.25;;;18.02;;
66927;SDS011;59882;45.624;11.698;2023-07-16T00:40:46;22.63;;;18.63;;
66927;SDS011;59882;45.624;11.698;2023-07-16T00:43:12;22.13;;;19.75;;
66927;SDS011;59882;45.624;11.698;2023-07-16T00:45:39;23.98;;;20.25;;
66927;SDS011;59882;45.624;11.698;2023-07-16T00:48:06;23.90;;;18.80;;
66927;SDS011;59882;45.624;11.698;2023-07-16T00:50:33;21.23;;;16.55;;
66927;SDS011;59882;45.624;11.698;2023-07-16T00:53:04;21.25;;;14.25;;
66927;SDS011;59882;45.624;11.698;2023-07-16T00:55:34;18.80;;;14.60;;
66927;SDS011;59882;45.624;11.698;2023-07-16T00:58:05;23.85;;;15.38;;
66927;SDS011;59882;45.624;11.698;2023-07-16T01:00:32;24.70;;;16.07;;
66927;SDS011;59882;45.624;11.698;2023-07-16T01:02:59;21.10;;;15.90;;
66927;SDS011;59882;45.624;11.698;2023-07-16T01:05:27;19.50;;;15.50;;
66927;SDS011;59882;45.624;11.698;2023-07-16T01:08:10;21.02;;;16.55;;
66927;SDS011;59882;45.624;11.698;2023-07-16T01:10:40;20.40;;;16.10;;
66927;SDS011;59882;45.624;11.698;2023-07-16T01:13:06;19.20;;;17.17;;
66927;SDS011;59882;45.624;11.698;2023-07-16T01:15:32;21.00;;;17.33;;
66927;SDS011;59882;45.624;11.698;2023-07-16T01:17:58;20.83;;;17.03;;
66927;SDS011;59882;45.624;11.698;2023-07-16T01:20:24;19.42;;;15.85;;
66927;SDS011;59882;45.624;11.698;2023-07-16T01:25:42;22.03;;;15.87;;
66927;SDS011;59882;45.624;11.698;2023-07-16T01:28:33;16.80;;;14.88;;
66927;SDS011;59882;45.624;11.698;2023-07-16T01:31:24;20.67;;;16.00;;
66927;SDS011;59882;45.624;11.698;2023-07-16T01:33:51;22.42;;;17.40;;
66927;SDS011;59882;45.624;11.698;2023-07-16T01:36:18;21.10;;;15.95;;
66927;SDS011;59882;45.624;11.698;2023-07-16T01:38:45;22.07;;;16.73;;
66927;SDS011;59882;45.624;11.698;2023-07-16T01:41:11;22.05;;;17.73;;
66927;SDS011;59882;45.624;11.698;2023-07-16T01:43:37;28.10;;;18.85;;
66927;SDS011;59882;45.624;11.698;2023-07-16T01:46:03;22.67;;;19.17;;
66927;SDS011;59882;45.624;11.698;2023-07-16T01:48:30;22.05;;;17.52;;
66927;SDS011;59882;45.624;11.698;2023-07-16T01:50:57;25.00;;;21.47;;
66927;SDS011;59882;45.624;11.698;2023-07-16T01:53:23;25.98;;;21.33;;
66927;SDS011;59882;45.624;11.698;2023-07-16T01:55:48;24.83;;;21.70;;
66927;SDS011;59882;45.624;11.698;2023-07-16T01:58:14;23.48;;;21.05;;
66927;SDS011;59882;45.624;11.698;2023-07-16T02:00:40;25.93;;;19.87;;
66927;SDS011;59882;45.624;11.698;2023-07-16T02:03:05;24.15;;;21.33;;
66927;SDS011;59882;45.624;11.698;2023-07-16T02:05:31;23.90;;;19.93;;
66927;SDS011;59882;45.624;11.698;2023-07-16T02:07:57;25.67;;;21.63;;
66927;SDS011;59882;45.624;11.698;2023-07-16T02:10:22;24.60;;;21.42;;
66927;SDS011;59882;45.624;11.698;2023-07-16T02:12:48;27.00;;;21.80;;
66927;SDS011;59882;45.624;11.698;2023-07-16T02:15:14;24.52;;;21.17;;
66927;SDS011;59882;45.624;11.698;2023-07-16T02:17:40;25.83;;;21.70;;
66927;SDS011;59882;45.624;11.698;2023-07-16T02:20:06;26.00;;;21.73;;
66927;SDS011;59882;45.624;11.698;2023-07-16T02:22:33;25.10;;;21.17;;
66927;SDS011;59882;45.624;11.698;2023-07-16T02:25:00;24.17;;;20.35;;
66927;SDS011;59882;45.624;11.698;2023-07-16T02:27:26;23.85;;;21.20;;
66927;SDS011;59882;45.624;11.698;2023-07-16T02:29:52;22.47;;;19.47;;
66927;SDS011;59882;45.624;11.698;2023-07-16T02:32:18;24.92;;;20.05;;
66927;SDS011;59882;45.624;11.698;2023-07-16T02:34:43;25.37;;;21.30;;
66927;SDS011;59882;45.624;11.698;2023-07-16T02:37:09;23.85;;;21.00;;
66927;SDS011;59882;45.624;11.698;2023-07-16T02:39:35;24.20;;;21.80;;
66927;SDS011;59882;45.624;11.698;2023-07-16T02:42:00;21.47;;;17.47;;
66927;SDS011;59882;45.624;11.698;2023-07-16T02:44:26;22.95;;;18.80;;
66927;SDS011;59882;45.624;11.698;2023-07-16T02:46:51;24.50;;;18.77;;
66927;SDS011;59882;45.624;11.698;2023-07-16T02:49:17;24.77;;;19.52;;
66927;SDS011;59882;45.624;11.698;2023-07-16T02:51:43;22.03;;;19.73;;
66927;SDS011;59882;45.624;11.698;2023-07-16T02:54:08;21.92;;;18.90;;
66927;SDS011;59882;45.624;11.698;2023-07-16T02:56:34;24.17;;;19.57;;
66927;SDS011;59882;45.624;11.698;2023-07-16T02:58:59;24.63;;;19.97;;
66927;SDS011;59882;45.624;11.698;2023-07-16T03:01:25;23.52;;;20.98;;
66927;SDS011;59882;45.624;11.698;2023-07-16T03:03:51;25.17;;;21.13;;
66927;SDS011;59882;45.624;11.698;2023-07-16T03:06:16;26.98;;;21.50;;
66927;SDS011;59882;45.624;11.698;2023-07-16T03:08:42;22.83;;;20.43;;
66927;SDS011;59882;45.624;11.698;2023-07-16T03:11:10;22.23;;;19.83;;
66927;SDS011;59882;45.624;11.698;2023-07-16T03:13:36;20.52;;;18.15;;
66927;SDS011;59882;45.624;11.698;2023-07-16T03:16:02;25.00;;;20.00;;
66927;SDS011;59882;45.624;11.698;2023-07-16T03:18:28;22.70;;;17.85;;
66927;SDS011;59882;45.624;11.698;2023-07-16T03:20:55;24.40;;;21.15;;
66927;SDS011;59882;45.624;11.698;2023-07-16T03:23:24;23.15;;;20.10;;
66927;SDS011;59882;45.624;11.698;2023-07-16T03:25:50;21.83;;;18.27;;
66927;SDS011;59882;45.624;11.698;2023-07-16T03:28:16;27.98;;;22.15;;
66927;SDS011;59882;45.624;11.698;2023-07-16T03:30:48;27.37;;;23.23;;
66927;SDS011;59882;45.624;11.698;2023-07-16T03:33:14;23.92;;;21.33;;
66927;SDS011;59882;45.624;11.698;2023-07-16T03:35:44;26.25;;;22.92;;
66927;SDS011;59882;45.624;11.698;2023-07-16T03:38:10;31.73;;;24.08;;
66927;SDS011;59882;45.624;11.698;2023-07-16T03:40:36;27.27;;;23.00;;
66927;SDS011;59882;45.624;11.698;2023-07-16T03:43:02;23.65;;;20.95;;
66927;SDS011;59882;45.624;11.698;2023-07-16T03:45:28;25.00;;;22.33;;
66927;SDS011;59882;45.624;11.698;2023-07-16T03:47:54;24.17;;;20.60;;
66927;SDS011;59882;45.624;11.698;2023-07-16T03:50:19;25.55;;;21.52;;
66927;SDS011;59882;45.624;11.698;2023-07-16T03:52:45;26.10;;;21.47;;
66927;SDS011;59882;45.624;11.698;2023-07-16T03:55:12;24.73;;;20.20;;
66927;SDS011;59882;45.624;11.698;2023-07-16T03:57:37;23.57;;;19.57;;
66927;SDS011;59882;45.624;11.698;2023-07-16T04:00:03;20.63;;;16.85;;
66927;SDS011;59882;45.624;11.698;2023-07-16T04:02:32;20.83;;;16.27;;
66927;SDS011;59882;45.624;11.698;2023-07-16T04:04:58;21.57;;;17.63;;
66927;SDS011;59882;45.624;11.698;2023-07-16T04:07:24;20.63;;;16.73;;
66927;SDS011;59882;45.624;11.698;2023-07-16T04:09:49;18.02;;;15.98;;
66927;SDS011;59882;45.624;11.698;2023-07-16T04:12:15;20.52;;;18.27;;
66927;SDS011;59882;45.624;11.698;2023-07-16T04:14:41;20.90;;;17.83;;
66927;SDS011;59882;45.624;11.698;2023-07-16T04:17:07;24.20;;;19.73;;
66927;SDS011;59882;45.624;11.698;2023-07-16T04:19:32;22.53;;;19.77;;
66927;SDS011;59882;45.624;11.698;2023-07-16T04:21:58;25.80;;;21.23;;
66927;SDS011;59882;45.624;11.698;2023-07-16T04:24:24;23.10;;;20.17;;
66927;SDS011;59882;45.624;11.698;2023-07-16T04:26:52;26.52;;;21.15;;
66927;SDS011;59882;45.624;11.698;2023-07-16T04:29:18;28.25;;;20.90;;
66927;SDS011;59882;45.624;11.698;2023-07-16T04:31:43;24.30;;;20.13;;
66927;SDS011;59882;45.624;11.698;2023-07-16T04:34:09;22.30;;;18.20;;
66927;SDS011;59882;45.624;11.698;2023-07-16T04:36:34;23.07;;;19.07;;
66927;SDS011;59882;45.624;11.698;2023-07-16T04:39:00;24.40;;;18.73;;
66927;SDS011;59882;45.624;11.698;2023-07-16T04:41:26;24.53;;;18.90;;
66927;SDS011;59882;45.624;11.698;2023-07-16T04:43:52;23.88;;;19.55;;
66927;SDS011;59882;45.624;11.698;2023-07-16T04:46:17;29.17;;;18.80;;
66927;SDS011;59882;45.624;11.698;2023-07-16T04:48:43;24.73;;;17.92;;
66927;SDS011;59882;45.624;11.698;2023-07-16T04:51:09;22.13;;;17.67;;
66927;SDS011;59882;45.624;11.698;2023-07-16T04:53:34;22.93;;;16.10;;
66927;SDS011;59882;45.624;11.698;2023-07-16T04:56:00;17.45;;;15.30;;
66927;SDS011;59882;45.624;11.698;2023-07-16T04:58:25;18.63;;;14.57;;
66927;SDS011;59882;45.624;11.698;2023-07-16T05:00:51;23.23;;;16.60;;
66927;SDS011;59882;45.624;11.698;2023-07-16T05:03:17;21.43;;;16.37;;
66927;SDS011;59882;45.624;11.698;2023-07-16T05:05:42;21.47;;;15.43;;
66927;SDS011;59882;45.624;11.698;2023-07-16T05:08:08;21.52;;;14.48;;
66927;SDS011;59882;45.624;11.698;2023-07-16T05:10:33;19.70;;;14.57;;
66927;SDS011;59882;45.624;11.698;2023-07-16T05:12:59;20.77;;;15.73;;
66927;SDS011;59882;45.624;11.698;2023-07-16T05:15:25;22.03;;;15.93;;
66927;SDS011;59882;45.624;11.698;2023-07-16T05:17:50;21.20;;;15.37;;
66927;SDS011;59882;45.624;11.698;2023-07-16T05:20:16;19.52;;;14.35;;
66927;SDS011;59882;45.624;11.698;2023-07-16T05:22:42;18.10;;;14.73;;
66927;SDS011;59882;45.624;11.698;2023-07-16T05:25:07;23.77;;;15.23;;
66927;SDS011;59882;45.624;11.698;2023-07-16T05:27:33;18.43;;;15.00;;
66927;SDS011;59882;45.624;11.698;2023-07-16T05:30:00;19.27;;;14.98;;
66927;SDS011;59882;45.624;11.698;2023-07-16T05:32:26;19.55;;;15.25;;
66927;SDS011;59882;45.624;11.698;2023-07-16T05:34:51;19.97;;;14.03;;
66927;SDS011;59882;45.624;11.698;2023-07-16T05:37:17;18.27;;;13.10;;
66927;SDS011;59882;45.624;11.698;2023-07-16T05:39:43;20.80;;;15.55;;
66927;SDS011;59882;45.624;11.698;2023-07-16T05:42:08;17.37;;;14.93;;
66927;SDS011;59882;45.624;11.698;2023-07-16T05:44:35;18.50;;;15.43;;
66927;SDS011;59882;45.624;11.698;2023-07-16T05:47:00;24.83;;;15.07;;
66927;SDS011;59882;45.624;11.698;2023-07-16T05:49:26;23.30;;;15.45;;
66927;SDS011;59882;45.624;11.698;2023-07-16T05:51:52;19.33;;;14.83;;
66927;SDS011;59882;45.624;11.698;2023-07-16T05:54:19;23.40;;;15.10;;
66927;SDS011;59882;45.624;11.698;2023-07-16T05:56:44;21.08;;;15.15;;
66927;SDS011;59882;45.624;11.698;2023-07-16T05:59:10;24.03;;;14.73;;
66927;SDS011;59882;45.624;11.698;2023-07-16T06:01:36;17.10;;;13.57;;
66927;SDS011;59882;45.624;11.698;2023-07-16T06:04:01;19.43;;;13.23;;
66927;SDS011;59882;45.624;11.698;2023-07-16T06:06:27;19.30;;;13.98;;
66927;SDS011;59882;45.624;11.698;2023-07-16T06:08:54;17.50;;;11.90;;
66927;SDS011;59882;45.624;11.698;2023-07-16T06:11:19;19.10;;;12.23;;
66927;SDS011;59882;45.624;11.698;2023-07-16T06:13:45;16.27;;;11.05;;
66927;SDS011;59882;45.624;11.698;2023-07-16T06:16:11;15.50;;;10.70;;
66927;SDS011;59882;45.624;11.698;2023-07-16T06:18:37;16.80;;;10.75;;
66927;SDS011;59882;45.624;11.698;2023-07-16T06:21:02;15.70;;;11.30;;
66927;SDS011;59882;45.624;11.698;2023-07-16T06:23:28;17.10;;;11.00;;
66927;SDS011;59882;45.624;11.698;2023-07-16T06:25:57;18.40;;;10.88;;
66927;SDS011;59882;45.624;11.698;2023-07-16T06:28:23;16.25;;;10.82;;
66927;SDS011;59882;45.624;11.698;2023-07-16T06:30:49;18.50;;;11.45;;
66927;SDS011;59882;45.624;11.698;2023-07-16T06:33:17;19.57;;;11.33;;
66927;SDS011;59882;45.624;11.698;2023-07-16T06:35:46;19.77;;;9.35;;
66927;SDS011;59882;45.624;11.698;2023-07-16T06:38:13;17.67;;;9.95;;
66927;SDS011;59882;45.624;11.698;2023-07-16T06:40:39;12.50;;;9.52;;
66927;SDS011;59882;45.624;11.698;2023-07-16T06:43:10;21.00;;;11.18;;
66927;SDS011;59882;45.624;11.698;2023-07-16T06:45:36;16.87;;;10.77;;
66927;SDS011;59882;45.624;11.698;2023-07-16T06:48:01;14.53;;;9.57;;
66927;SDS011;59882;45.624;11.698;2023-07-16T06:50:27;16.88;;;9.13;;
66927;SDS011;59882;45.624;11.698;2023-07-16T06:52:52;13.33;;;8.97;;
66927;SDS011;59882;45.624;11.698;2023-07-16T06:55:18;14.20;;;8.98;;
66927;SDS011;59882;45.624;11.698;2023-07-16T06:57:44;17.37;;;9.03;;
66927;SDS011;59882;45.624;11.698;2023-07-16T07:00:09;14.00;;;9.50;;
66927;SDS011;59882;45.624;11.698;2023-07-16T07:02:36;19.33;;;9.45;;
66927;SDS011;59882;45.624;11.698;2023-07-16T07:05:02;15.13;;;9.45;;
66927;SDS011;59882;45.624;11.698;2023-07-16T07:07:27;18.23;;;10.30;;
66927;SDS011;59882;45.624;11.698;2023-07-16T07:09:53;16.33;;;10.77;;
66927;SDS011;59882;45.624;11.698;2023-07-16T07:12:19;17.30;;;10.37;;
66927;SDS011;59882;45.624;11.698;2023-07-16T07:14:46;17.63;;;11.43;;
66927;SDS011;59882;45.624;11.698;2023-07-16T07:17:12;14.10;;;10.03;;
66927;SDS011;59882;45.624;11.698;2023-07-16T07:19:37;15.63;;;10.20;;
66927;SDS011;59882;45.624;11.698;2023-07-16T07:22:03;16.67;;;10.87;;
66927;SDS011;59882;45.624;11.698;2023-07-16T07:24:29;16.65;;;11.10;;
66927;SDS011;59882;45.624;11.698;2023-07-16T07:26:54;14.93;;;10.43;;
66927;SDS011;59882;45.624;11.698;2023-07-16T07:29:20;23.80;;;11.40;;
66927;SDS011;59882;45.624;11.698;2023-07-16T07:31:46;20.40;;;11.43;;
66927;SDS011;59882;45.624;11.698;2023-07-16T07:34:11;18.10;;;10.73;;
66927;SDS011;59882;45.624;11.698;2023-07-16T07:36:37;20.90;;;11.07;;
66927;SDS011;59882;45.624;11.698;2023-07-16T07:39:02;16.90;;;9.87;;
66927;SDS011;59882;45.624;11.698;2023-07-16T07:41:28;21.20;;;10.13;;
66927;SDS011;59882;45.624;11.698;2023-07-16T07:43:54;15.70;;;9.87;;
66927;SDS011;59882;45.624;11.698;2023-07-16T07:46:19;19.17;;;10.47;;
66927;SDS011;59882;45.624;11.698;2023-07-16T07:48:45;15.07;;;10.05;;
66927;SDS011;59882;45.624;11.698;2023-07-16T07:51:10;16.13;;;10.07;;
66927;SDS011;59882;45.624;11.698;2023-07-16T07:53:36;17.13;;;10.40;;
66927;SDS011;59882;45.624;11.698;2023-07-16T07:56:02;17.37;;;9.43;;
66927;SDS011;59882;45.624;11.698;2023-07-16T07:58:28;15.07;;;9.40;;
66927;SDS011;59882;45.624;11.698;2023-07-16T08:00:53;11.93;;;9.23;;
66927;SDS011;59882;45.624;11.698;2023-07-16T08:03:19;14.25;;;9.75;;
66927;SDS011;59882;45.624;11.698;2023-07-16T08:05:47;14.00;;;8.60;;
66927;SDS011;59882;45.624;11.698;2023-07-16T08:08:14;15.98;;;8.35;;
66927;SDS011;59882;45.624;11.698;2023-07-16T08:10:40;16.13;;;9.17;;
66927;SDS011;59882;45.624;11.698;2023-07-16T08:13:05;16.00;;;8.68;;
66927;SDS011;59882;45.624;11.698;2023-07-16T08:15:31;18.03;;;8.57;;
66927;SDS011;59882;45.624;11.698;2023-07-16T08:17:58;15.45;;;8.85;;
66927;SDS011;59882;45.624;11.698;2023-07-16T08:20:24;16.58;;;8.52;;
66927;SDS011;59882;45.624;11.698;2023-07-16T08:22:51;15.23;;;7.73;;
66927;SDS011;59882;45.624;11.698;2023-07-16T08:25:17;13.15;;;7.93;;
66927;SDS011;59882;45.624;11.698;2023-07-16T08:27:42;17.47;;;8.10;;
66927;SDS011;59882;45.624;11.698;2023-07-16T08:30:08;15.45;;;7.78;;
66927;SDS011;59882;45.624;11.698;2023-07-16T08:32:34;12.95;;;7.60;;
66927;SDS011;59882;45.624;11.698;2023-07-16T08:35:00;14.27;;;7.90;;
66927;SDS011;59882;45.624;11.698;2023-07-16T08:37:25;13.73;;;7.80;;
66927;SDS011;59882;45.624;11.698;2023-07-16T08:39:54;16.05;;;7.85;;
66927;SDS011;59882;45.624;11.698;2023-07-16T08:42:19;14.55;;;7.68;;
66927;SDS011;59882;45.624;11.698;2023-07-16T08:44:47;20.80;;;6.77;;
66927;SDS011;59882;45.624;11.698;2023-07-16T08:47:14;12.02;;;6.35;;
66927;SDS011;59882;45.624;11.698;2023-07-16T08:49:40;10.70;;;6.85;;
66927;SDS011;59882;45.624;11.698;2023-07-16T08:52:06;11.95;;;7.25;;
66927;SDS011;59882;45.624;11.698;2023-07-16T08:54:32;12.20;;;7.10;;
66927;SDS011;59882;45.624;11.698;2023-07-16T08:56:58;15.47;;;7.80;;
66927;SDS011;59882;45.624;11.698;2023-07-16T08:59:26;17.02;;;7.10;;
66927;SDS011;59882;45.624;11.698;2023-07-16T09:01:52;13.05;;;7.80;;
66927;SDS011;59882;45.624;11.698;2023-07-16T09:04:18;14.30;;;7.00;;
66927;SDS011;59882;45.624;11.698;2023-07-16T09:06:44;12.63;;;6.68;;
66927;SDS011;59882;45.624;11.698;2023-07-16T09:09:19;14.83;;;7.33;;
66927;SDS011;59882;45.624;11.698;2023-07-16T09:11:47;12.55;;;6.28;;
66927;SDS011;59882;45.624;11.698;2023-07-16T09:14:17;13.68;;;7.70;;
66927;SDS011;59882;45.624;11.698;2023-07-16T09:16:46;14.85;;;7.10;;
66927;SDS011;59882;45.624;11.698;2023-07-16T09:19:16;15.80;;;7.53;;
66927;SDS011;59882;45.624;11.698;2023-07-16T09:21:45;13.83;;;7.47;;
66927;SDS011;59882;45.624;11.698;2023-07-16T09:24:11;12.75;;;6.82;;
66927;SDS011;59882;45.624;11.698;2023-07-16T09:26:37;15.20;;;7.60;;
66927;SDS011;59882;45.624;11.698;2023-07-16T09:29:06;13.80;;;7.53;;
66927;SDS011;59882;45.624;11.698;2023-07-16T09:31:33;16.50;;;7.15;;
66927;SDS011;59882;45.624;11.698;2023-07-16T09:33:58;13.05;;;7.88;;
66927;SDS011;59882;45.624;11.698;2023-07-16T09:36:27;13.90;;;7.40;;
66927;SDS011;59882;45.624;11.698;2023-07-16T09:38:53;13.45;;;7.20;;
66927;SDS011;59882;45.624;11.698;2023-07-16T09:41:20;13.50;;;7.25;;
66927;SDS011;59882;45.624;11.698;2023-07-16T09:43:46;12.48;;;7.63;;
66927;SDS011;59882;45.624;11.698;2023-07-16T09:46:12;11.73;;;7.30;;
66927;SDS011;59882;45.624;11.698;2023-07-16T09:48:37;18.23;;;7.50;;
66927;SDS011;59882;45.624;11.698;2023-07-16T09:51:03;13.20;;;6.78;;
66927;SDS011;59882;45.624;11.698;2023-07-16T09:53:32;14.18;;;7.88;;
66927;SDS011;59882;45.624;11.698;2023-07-16T09:56:01;9.03;;;6.03;;
66927;SDS011;59882;45.624;11.698;2023-07-16T09:58:29;14.75;;;7.15;;
66927;SDS011;59882;45.624;11.698;2023-07-16T10:00:55;13.00;;;7.07;;
66927;SDS011;59882;45.624;11.698;2023-07-16T10:03:21;15.90;;;6.82;;
66927;SDS011;59882;45.624;11.698;2023-07-16T10:05:47;12.53;;;6.67;;
66927;SDS011;59882;45.624;11.698;2023-07-16T10:08:17;16.58;;;7.60;;
66927;SDS011;59882;45.624;11.698;2023-07-16T10:13:14;12.18;;;7.13;;
66927;SDS011;59882;45.624;11.698;2023-07-16T10:15:50;14.73;;;6.97;;
66927;SDS011;59882;45.624;11.698;2023-07-16T10:18:27;13.60;;;6.93;;
66927;SDS011;59882;45.624;11.698;2023-07-16T10:20:59;13.25;;;6.60;;
66927;SDS011;59882;45.624;11.698;2023-07-16T10:23:38;12.13;;;7.18;;
66927;SDS011;59882;45.624;11.698;2023-07-16T10:26:06;11.82;;;6.80;;
66927;SDS011;59882;45.624;11.698;2023-07-16T10:28:33;11.10;;;6.53;;
66927;SDS011;59882;45.624;11.698;2023-07-16T10:30:59;14.77;;;7.25;;
66927;SDS011;59882;45.624;11.698;2023-07-16T10:33:25;12.10;;;7.35;;
66927;SDS011;59882;45.624;11.698;2023-07-16T10:35:50;14.90;;;7.50;;
66927;SDS011;59882;45.624;11.698;2023-07-16T10:38:16;13.70;;;6.95;;
66927;SDS011;59882;45.624;11.698;2023-07-16T10:40:42;14.55;;;6.57;;
66927;SDS011;59882;45.624;11.698;2023-07-16T10:43:09;10.60;;;6.20;;
66927;SDS011;59882;45.624;11.698;2023-07-16T10:45:35;13.50;;;7.22;;
66927;SDS011;59882;45.624;11.698;2023-07-16T10:48:01;9.68;;;6.38;;
66927;SDS011;59882;45.624;11.698;2023-07-16T10:50:27;16.20;;;7.28;;
66927;SDS011;59882;45.624;11.698;2023-07-16T10:52:53;11.53;;;6.37;;
66927;SDS011;59882;45.624;11.698;2023-07-16T10:55:19;14.65;;;6.60;;
66927;SDS011;59882;45.624;11.698;2023-07-16T10:57:48;12.00;;;6.40;;
66927;SDS011;59882;45.624;11.698;2023-07-16T11:00:15;11.90;;;6.30;;
66927;SDS011;59882;45.624;11.698;2023-07-16T11:02:42;12.60;;;6.85;;
66927;SDS011;59882;45.624;11.698;2023-07-16T11:05:15;12.48;;;6.35;;
66927;SDS011;59882;45.624;11.698;2023-07-16T11:07:44;10.30;;;6.35;;
66927;SDS011;59882;45.624;11.698;2023-07-16T11:10:16;13.57;;;5.77;;
66927;SDS011;59882;45.624;11.698;2023-07-16T11:12:42;10.38;;;6.00;;
66927;SDS011;59882;45.624;11.698;2023-07-16T11:15:08;10.90;;;6.32;;
66927;SDS011;59882;45.624;11.698;2023-07-16T11:17:36;16.65;;;6.72;;
66927;SDS011;59882;45.624;11.698;2023-07-16T11:20:03;10.48;;;5.95;;
66927;SDS011;59882;45.624;11.698;2023-07-16T11:22:32;12.47;;;6.97;;
66927;SDS011;59882;45.624;11.698;2023-07-16T11:25:02;8.45;;;6.20;;
66927;SDS011;59882;45.624;11.698;2023-07-16T11:27:30;13.00;;;6.28;;
66927;SDS011;59882;45.624;11.698;2023-07-16T11:29:57;14.20;;;6.13;;
66927;SDS011;59882;45.624;11.698;2023-07-16T11:32:31;12.85;;;6.55;;
66927;SDS011;59882;45.624;11.698;2023-07-16T11:35:00;14.93;;;6.57;;
66927;SDS011;59882;45.624;11.698;2023-07-16T11:37:30;12.88;;;6.30;;
66927;SDS011;59882;45.624;11.698;2023-07-16T11:40:04;13.95;;;6.53;;
66927;SDS011;59882;45.624;11.698;2023-07-16T11:42:32;11.55;;;6.40;;
66927;SDS011;59882;45.624;11.698;2023-07-16T11:45:03;13.15;;;6.60;;
66927;SDS011;59882;45.624;11.698;2023-07-16T11:47:29;11.83;;;6.00;;
66927;SDS011;59882;45.624;11.698;2023-07-16T11:49:56;12.80;;;7.07;;
66927;SDS011;59882;45.624;11.698;2023-07-16T11:52:23;15.13;;;6.82;;
66927;SDS011;59882;45.624;11.698;2023-07-16T11:54:54;13.05;;;6.22;;
66927;SDS011;59882;45.624;11.698;2023-07-16T11:57:22;10.65;;;6.38;;
66927;SDS011;59882;45.624;11.698;2023-07-16T11:59:48;10.73;;;6.40;;
66927;SDS011;59882;45.624;11.698;2023-07-16T12:02:13;10.82;;;6.07;;
66927;SDS011;59882;45.624;11.698;2023-07-16T12:04:40;10.13;;;6.43;;
66927;SDS011;59882;45.624;11.698;2023-07-16T12:07:05;13.63;;;6.27;;
66927;SDS011;59882;45.624;11.698;2023-07-16T12:09:31;9.93;;;6.00;;
66927;SDS011;59882;45.624;11.698;2023-07-16T12:11:57;12.37;;;6.40;;
66927;SDS011;59882;45.624;11.698;2023-07-16T12:14:23;11.55;;;6.82;;
66927;SDS011;59882;45.624;11.698;2023-07-16T12:16:48;9.70;;;5.60;;
66927;SDS011;59882;45.624;11.698;2023-07-16T12:19:14;9.23;;;6.03;;
66927;SDS011;59882;45.624;11.698;2023-07-16T12:21:40;12.77;;;5.90;;
66927;SDS011;59882;45.624;11.698;2023-07-16T12:24:05;13.93;;;6.30;;
66927;SDS011;59882;45.624;11.698;2023-07-16T12:26:31;9.57;;;5.65;;
66927;SDS011;59882;45.624;11.698;2023-07-16T12:28:57;10.52;;;5.50;;
66927;SDS011;59882;45.624;11.698;2023-07-16T12:31:22;12.77;;;5.93;;
66927;SDS011;59882;45.624;11.698;2023-07-16T12:33:48;11.27;;;5.05;;
66927;SDS011;59882;45.624;11.698;2023-07-16T12:36:14;13.63;;;5.73;;
66927;SDS011;59882;45.624;11.698;2023-07-16T12:38:40;9.82;;;4.60;;
66927;SDS011;59882;45.624;11.698;2023-07-16T12:41:06;8.77;;;5.47;;
66927;SDS011;59882;45.624;11.698;2023-07-16T12:43:33;8.27;;;5.13;;
66927;SDS011;59882;45.624;11.698;2023-07-16T12:46:03;10.35;;;5.70;;
66927;SDS011;59882;45.624;11.698;2023-07-16T12:48:32;11.75;;;5.30;;
66927;SDS011;59882;45.624;11.698;2023-07-16T12:50:58;8.77;;;5.20;;
66927;SDS011;59882;45.624;11.698;2023-07-16T12:53:23;12.83;;;5.17;;
66927;SDS011;59882;45.624;11.698;2023-07-16T12:55:49;8.27;;;5.05;;
66927;SDS011;59882;45.624;11.698;2023-07-16T12:58:15;8.90;;;5.03;;
66927;SDS011;59882;45.624;11.698;2023-07-16T13:00:41;9.45;;;4.10;;
66927;SDS011;59882;45.624;11.698;2023-07-16T13:03:06;7.53;;;4.53;;
66927;SDS011;59882;45.624;11.698;2023-07-16T13:05:36;9.20;;;4.45;;
66927;SDS011;59882;45.624;11.698;2023-07-16T13:08:05;8.07;;;4.72;;
66927;SDS011;59882;45.624;11.698;2023-07-16T13:10:30;9.43;;;4.70;;
66927;SDS011;59882;45.624;11.698;2023-07-16T13:12:56;9.23;;;5.10;;
66927;SDS011;59882;45.624;11.698;2023-07-16T13:15:22;6.97;;;4.77;;
66927;SDS011;59882;45.624;11.698;2023-07-16T13:17:47;8.07;;;4.77;;
66927;SDS011;59882;45.624;11.698;2023-07-16T13:20:13;6.50;;;4.80;;
66927;SDS011;59882;45.624;11.698;2023-07-16T13:22:40;7.90;;;4.90;;
66927;SDS011;59882;45.624;11.698;2023-07-16T13:25:07;10.55;;;5.07;;
66927;SDS011;59882;45.624;11.698;2023-07-16T13:27:32;7.60;;;5.60;;
66927;SDS011;59882;45.624;11.698;2023-07-16T13:29:58;8.00;;;5.32;;
66927;SDS011;59882;45.624;11.698;2023-07-16T13:32:24;9.23;;;4.95;;
66927;SDS011;59882;45.624;11.698;2023-07-16T13:34:49;10.80;;;5.63;;
66927;SDS011;59882;45.624;11.698;2023-07-16T13:37:15;8.35;;;5.65;;
66927;SDS011;59882;45.624;11.698;2023-07-16T13:39:40;8.50;;;5.50;;
66927;SDS011;59882;45.624;11.698;2023-07-16T13:42:06;8.57;;;5.70;;
66927;SDS011;59882;45.624;11.698;2023-07-16T13:44:35;7.20;;;5.00;;
66927;SDS011;59882;45.624;11.698;2023-07-16T13:47:00;7.85;;;5.07;;
66927;SDS011;59882;45.624;11.698;2023-07-16T13:49:26;9.37;;;5.73;;
66927;SDS011;59882;45.624;11.698;2023-07-16T13:51:52;6.40;;;5.57;;
66927;SDS011;59882;45.624;11.698;2023-07-16T13:54:17;6.67;;;5.13;;
66927;SDS011;59882;45.624;11.698;2023-07-16T13:56:43;6.65;;;5.30;;
66927;SDS011;59882;45.624;11.698;2023-07-16T13:59:09;8.95;;;5.80;;
66927;SDS011;59882;45.624;11.698;2023-07-16T14:01:38;8.27;;;5.20;;
66927;SDS011;59882;45.624;11.698;2023-07-16T14:04:04;10.02;;;6.38;;
66927;SDS011;59882;45.624;11.698;2023-07-16T14:06:30;9.07;;;5.40;;
66927;SDS011;59882;45.624;11.698;2023-07-16T14:08:56;8.35;;;5.80;;
66927;SDS011;59882;45.624;11.698;2023-07-16T14:11:22;7.65;;;5.90;;
66927;SDS011;59882;45.624;11.698;2023-07-16T14:13:48;8.10;;;5.80;;
66927;SDS011;59882;45.624;11.698;2023-07-16T14:16:16;8.70;;;5.57;;
66927;SDS011;59882;45.624;11.698;2023-07-16T14:18:48;11.27;;;6.40;;